createdAt,value
2023-05-24T00:02:00.247Z,10.30
2023-05-24T00:04:30.459Z,10.28
2023-05-24T00:06:58.186Z,10.15
2023-05-24T00:09:25.369Z,10.14
2023-05-24T00:11:51.880Z,10.12
2023-05-24T00:14:18.460Z,10.06
2023-05-24T00:16:46.481Z,10.06
2023-05-24T00:19:18.475Z,10.04
2023-05-24T00:21:46.070Z,10.03
2023-05-24T00:24:12.724Z,10.10
2023-05-24T00:26:39.565Z,10.06
2023-05-24T00:29:06.533Z,10.09
2023-05-24T00:31:33.154Z,10.10
2023-05-24T00:33:59.665Z,10.09
2023-05-24T00:36:26.482Z,10.13
2023-05-24T00:38:53.706Z,10.18
2023-05-24T00:41:20.346Z,10.13
2023-05-24T00:43:47.033Z,10.14
2023-05-24T00:46:28.047Z,10.11
2023-05-24T00:48:54.900Z,10.12
2023-05-24T00:51:21.692Z,10.16
2023-05-24T00:53:49.012Z,10.09
2023-05-24T00:56:16.795Z,10.04
2023-05-24T00:58:44.150Z,10.13
2023-05-24T01:01:10.766Z,10.08
2023-05-24T01:03:38.167Z,10.09
2023-05-24T01:06:07.293Z,10.05
2023-05-24T01:08:35.001Z,10.01
2023-05-24T01:11:06.622Z,10.01
2023-05-24T01:13:39.615Z,10.04
2023-05-24T01:16:12.751Z,10.09
2023-05-24T01:18:41.684Z,10.08
2023-05-24T01:21:39.297Z,10.07
2023-05-24T01:24:30.312Z,10.07
2023-05-24T01:27:07.375Z,10.03
2023-05-24T01:29:35.557Z,10.03
2023-05-24T01:32:02.971Z,9.97
2023-05-24T01:34:30.367Z,9.91
2023-05-24T01:36:57.149Z,9.89
2023-05-24T01:39:29.936Z,10.01
2023-05-24T01:42:12.657Z,9.96
2023-05-24T01:45:10.127Z,9.90
2023-05-24T01:48:08.264Z,9.90
2023-05-24T01:50:38.856Z,9.75
2023-05-24T01:53:09.711Z,9.73
2023-05-24T01:55:37.541Z,9.76
2023-05-24T01:58:05.518Z,9.71
2023-05-24T02:00:33.096Z,9.79
2023-05-24T02:03:02.356Z,9.72
2023-05-24T02:05:29.101Z,9.70
2023-05-24T02:07:56.199Z,9.76
2023-05-24T02:10:23.640Z,9.71
2023-05-24T02:12:50.455Z,9.71
2023-05-24T02:15:17.247Z,9.71
2023-05-24T02:17:46.106Z,9.70
2023-05-24T02:20:13.547Z,9.66
2023-05-24T02:22:40.677Z,9.59
2023-05-24T02:25:08.047Z,9.59
2023-05-24T02:27:35.010Z,9.64
2023-05-24T02:30:01.544Z,9.51
2023-05-24T02:32:28.173Z,9.53
2023-05-24T02:34:54.733Z,9.49
2023-05-24T02:37:21.409Z,9.57
2023-05-24T02:39:48.021Z,9.50
2023-05-24T02:42:14.765Z,9.50
2023-05-24T02:44:42.827Z,9.52
2023-05-24T02:47:09.366Z,9.42
2023-05-24T02:49:35.986Z,9.41
2023-05-24T02:52:02.742Z,9.42
2023-05-24T02:54:29.212Z,9.37
2023-05-24T02:56:56.689Z,9.40
2023-05-24T02:59:23.879Z,9.48
2023-05-24T03:01:50.797Z,9.48
2023-05-24T03:04:17.554Z,9.38
2023-05-24T03:06:44.617Z,9.38
2023-05-24T03:09:11.152Z,9.46
2023-05-24T03:11:37.584Z,9.41
2023-05-24T03:14:06.396Z,9.39
2023-05-24T03:16:33.135Z,9.44
2023-05-24T03:19:00.352Z,9.38
2023-05-24T03:21:27.381Z,9.42
2023-05-24T03:23:54.038Z,9.40
2023-05-24T03:26:20.755Z,9.37
2023-05-24T03:28:47.705Z,9.42
2023-05-24T03:31:14.397Z,9.37
2023-05-24T03:33:41.114Z,9.41
2023-05-24T03:36:07.802Z,9.42
2023-05-24T03:38:34.422Z,9.45
2023-05-24T03:41:00.966Z,9.52
2023-05-24T03:43:27.487Z,9.45
2023-05-24T03:45:54.090Z,9.49
2023-05-24T03:48:21.005Z,9.34
2023-05-24T03:50:47.888Z,9.45
2023-05-24T03:53:15.407Z,9.39
2023-05-24T03:55:41.911Z,9.24
2023-05-24T03:58:08.463Z,9.30
2023-05-24T04:00:35.117Z,9.37
2023-05-24T04:03:01.871Z,9.36
2023-05-24T04:05:29.998Z,9.34
2023-05-24T04:07:56.650Z,9.41
2023-05-24T04:10:23.355Z,9.37
2023-05-24T04:12:49.968Z,9.42
2023-05-24T04:15:16.746Z,9.58
2023-05-24T04:17:45.205Z,9.48
2023-05-24T04:20:12.237Z,9.64
2023-05-24T04:22:39.196Z,9.60
2023-05-24T04:25:06.725Z,9.53
2023-05-24T04:27:33.369Z,9.57
2023-05-24T04:30:00.396Z,9.52
2023-05-24T04:32:30.302Z,9.58
2023-05-24T04:34:57.136Z,9.79
2023-05-24T04:37:24.745Z,10.02
2023-05-24T04:39:51.762Z,9.82
2023-05-24T04:42:18.458Z,9.85
2023-05-24T04:44:45.116Z,9.98
2023-05-24T04:47:12.850Z,10.21
2023-05-24T04:49:39.679Z,10.20
2023-05-24T04:52:07.334Z,10.37
2023-05-24T04:54:34.105Z,10.32
2023-05-24T04:57:01.185Z,10.40
2023-05-24T04:59:27.840Z,10.46
2023-05-24T05:01:54.469Z,10.44
2023-05-24T05:04:20.934Z,10.40
2023-05-24T05:06:48.269Z,10.52
2023-05-24T05:09:15.954Z,10.46
2023-05-24T05:11:42.783Z,10.54
2023-05-24T05:14:09.765Z,10.57
2023-05-24T05:16:36.940Z,10.72
2023-05-24T05:19:07.374Z,10.50
2023-05-24T05:21:34.628Z,10.67
2023-05-24T05:24:02.272Z,10.80
2023-05-24T05:26:29.023Z,10.76
2023-05-24T05:28:56.624Z,10.81
2023-05-24T05:31:24.735Z,10.86
2023-05-24T05:33:51.411Z,10.91
2023-05-24T05:36:18.078Z,10.94
2023-05-24T05:38:44.623Z,10.85
2023-05-24T05:41:11.408Z,10.86
2023-05-24T05:43:38.972Z,11.01
2023-05-24T05:46:06.227Z,11.22
2023-05-24T05:48:32.710Z,11.51
2023-05-24T05:50:59.334Z,11.21
2023-05-24T05:53:25.950Z,11.33
2023-05-24T05:55:52.458Z,11.18
2023-05-24T05:58:18.942Z,11.61
2023-05-24T06:00:45.612Z,11.91
2023-05-24T06:03:12.316Z,12.23
2023-05-24T06:05:38.890Z,12.25
2023-05-24T06:08:05.613Z,12.49
2023-05-24T06:10:32.215Z,12.87
2023-05-24T06:12:58.671Z,13.26
2023-05-24T06:15:25.170Z,13.57
2023-05-24T06:17:52.698Z,13.96
2023-05-24T06:20:19.516Z,13.83
2023-05-24T06:22:46.393Z,13.92
2023-05-24T06:25:19.849Z,14.12
2023-05-24T06:27:46.780Z,13.05
2023-05-24T06:30:13.899Z,13.12
2023-05-24T06:32:40.767Z,13.17
2023-05-24T06:35:08.075Z,13.00
2023-05-24T06:37:34.883Z,13.13
2023-05-24T06:40:02.044Z,13.91
2023-05-24T06:42:28.674Z,14.82
2023-05-24T06:44:55.226Z,15.52
2023-05-24T06:47:22.376Z,16.00
2023-05-24T06:49:49.931Z,15.37
2023-05-24T06:52:16.875Z,15.65
2023-05-24T06:54:43.471Z,14.76
2023-05-24T06:57:10.072Z,14.96
2023-05-24T06:59:36.501Z,14.74
2023-05-24T07:02:04.193Z,15.12
2023-05-24T07:04:31.605Z,14.84
2023-05-24T07:06:58.545Z,14.81
2023-05-24T07:09:25.167Z,14.31
2023-05-24T07:11:52.201Z,14.16
2023-05-24T07:14:18.632Z,13.67
2023-05-24T07:16:45.093Z,13.71
2023-05-24T07:19:13.526Z,13.39
2023-05-24T07:21:40.075Z,13.31
2023-05-24T07:24:07.038Z,12.63
2023-05-24T07:26:33.628Z,12.51
2023-05-24T07:29:00.347Z,12.40
2023-05-24T07:31:27.695Z,12.08
2023-05-24T07:33:54.125Z,11.87
2023-05-24T07:36:21.447Z,11.97
2023-05-24T07:38:47.917Z,12.11
2023-05-24T07:41:14.368Z,12.07
2023-05-24T07:43:40.877Z,12.09
2023-05-24T07:46:07.543Z,12.11
2023-05-24T07:48:34.056Z,12.24
2023-05-24T07:51:00.839Z,12.45
2023-05-24T07:53:27.396Z,12.52
2023-05-24T07:55:53.944Z,12.36
2023-05-24T07:58:20.589Z,12.59
2023-05-24T08:00:47.465Z,12.87
2023-05-24T08:03:15.605Z,12.35
2023-05-24T08:05:42.355Z,12.20
2023-05-24T08:08:09.605Z,12.06
2023-05-24T08:10:36.665Z,12.06
2023-05-24T08:13:03.418Z,12.44
2023-05-24T08:15:30.051Z,12.43
2023-05-24T08:17:56.886Z,12.38
2023-05-24T08:20:23.669Z,12.48
2023-05-24T08:22:50.406Z,12.72
2023-05-24T08:25:17.700Z,12.45
2023-05-24T08:27:44.235Z,12.50
2023-05-24T08:30:11.396Z,12.34
2023-05-24T08:32:38.457Z,12.44
2023-05-24T08:35:19.156Z,12.78
2023-05-24T08:37:47.942Z,12.93
2023-05-24T08:40:14.589Z,12.87
2023-05-24T08:42:41.396Z,12.95
2023-05-24T08:45:12.926Z,13.16
2023-05-24T08:47:40.153Z,13.30
2023-05-24T08:50:08.269Z,13.17
2023-05-24T08:52:35.635Z,13.44
2023-05-24T08:55:04.808Z,13.69
2023-05-24T08:57:35.064Z,13.40
2023-05-24T09:00:01.998Z,12.80
2023-05-24T09:02:29.052Z,13.21
2023-05-24T09:04:56.009Z,13.74
2023-05-24T09:07:24.233Z,13.73
2023-05-24T09:09:59.085Z,13.97
2023-05-24T09:12:36.509Z,13.79
2023-05-24T09:15:05.437Z,14.44
2023-05-24T09:17:33.750Z,14.99
2023-05-24T09:20:00.884Z,15.23
2023-05-24T09:22:28.892Z,15.66
2023-05-24T09:25:00.766Z,15.97
2023-05-24T09:27:27.800Z,18.25
2023-05-24T09:29:55.599Z,20.70
2023-05-24T09:32:24.501Z,22.26
2023-05-24T09:34:53.559Z,22.22
2023-05-24T09:37:25.708Z,21.61
2023-05-24T09:39:56.123Z,19.60
2023-05-24T09:42:26.422Z,19.50
2023-05-24T09:45:09.817Z,18.70
2023-05-24T09:47:37.480Z,16.24
2023-05-24T09:50:05.593Z,15.17
2023-05-24T09:52:36.684Z,15.12
2023-05-24T09:55:15.961Z,15.86
2023-05-24T09:58:02.982Z,16.08
2023-05-24T10:00:30.976Z,16.14
2023-05-24T10:03:06.790Z,16.62
2023-05-24T10:05:34.190Z,16.95
2023-05-24T10:08:01.474Z,16.70
2023-05-24T10:10:33.837Z,17.44
2023-05-24T10:13:01.603Z,17.71
2023-05-24T10:15:28.964Z,18.55
2023-05-24T10:17:56.964Z,20.38
2023-05-24T10:20:24.648Z,19.95
2023-05-24T10:23:01.633Z,18.53
2023-05-24T10:25:29.909Z,18.04
2023-05-24T10:28:06.080Z,18.26
2023-05-24T10:30:48.019Z,17.52
2023-05-24T10:33:15.374Z,17.76
2023-05-24T10:35:43.103Z,18.58
2023-05-24T10:38:09.673Z,18.99
2023-05-24T10:40:41.466Z,18.74
2023-05-24T10:43:08.216Z,18.83
2023-05-24T10:45:38.645Z,19.42
2023-05-24T10:48:15.533Z,21.23
2023-05-24T10:50:43.074Z,22.18
2023-05-24T10:53:22.279Z,23.61
2023-05-24T10:55:57.259Z,23.98
2023-05-24T10:58:30.564Z,23.25
2023-05-24T11:00:57.195Z,21.85
2023-05-24T11:03:24.725Z,22.58
2023-05-24T11:05:53.514Z,23.12
2023-05-24T11:08:31.818Z,22.11
2023-05-24T11:13:41.486Z,19.83
2023-05-24T11:16:08.109Z,19.37
2023-05-24T11:18:39.969Z,18.64
2023-05-24T11:21:06.690Z,19.03
2023-05-24T11:23:34.414Z,19.57
2023-05-24T11:26:03.559Z,19.33
2023-05-24T11:28:30.322Z,19.30
2023-05-24T11:30:57.390Z,19.42
2023-05-24T11:33:24.528Z,20.07
2023-05-24T11:35:52.162Z,20.22
2023-05-24T11:38:23.518Z,20.62
2023-05-24T11:40:51.452Z,21.33
2023-05-24T11:43:19.871Z,22.68
2023-05-24T11:45:49.201Z,22.95
2023-05-24T11:48:16.851Z,23.91
2023-05-24T11:50:49.769Z,23.99
2023-05-24T11:53:23.162Z,22.81
2023-05-24T11:55:49.762Z,22.15
2023-05-24T11:58:23.333Z,21.26
2023-05-24T12:00:51.006Z,20.85
2023-05-24T12:03:17.694Z,20.04
2023-05-24T12:05:44.701Z,19.95
2023-05-24T12:08:18.285Z,20.54
2023-05-24T12:10:45.036Z,21.09
2023-05-24T12:13:25.426Z,21.18
2023-05-24T12:15:56.147Z,21.46
2023-05-24T12:18:24.203Z,20.90
2023-05-24T12:20:51.011Z,20.84
2023-05-24T12:23:23.607Z,20.30
2023-05-24T12:25:51.107Z,20.98
2023-05-24T12:28:21.798Z,20.58
2023-05-24T12:30:49.937Z,20.80
2023-05-24T12:33:19.123Z,21.89
2023-05-24T12:35:46.695Z,21.93
2023-05-24T12:38:13.228Z,21.87
2023-05-24T12:40:42.694Z,22.33
2023-05-24T12:43:10.626Z,22.02
2023-05-24T12:45:37.324Z,21.57
2023-05-24T12:48:05.039Z,20.68
2023-05-24T12:50:31.851Z,21.09
2023-05-24T12:52:58.309Z,20.00
2023-05-24T12:55:26.588Z,20.58
2023-05-24T12:57:54.731Z,21.18
2023-05-24T13:00:23.929Z,21.18
2023-05-24T13:02:53.079Z,20.84
2023-05-24T13:05:19.926Z,20.07
2023-05-24T13:07:46.602Z,20.54
2023-05-24T13:10:13.486Z,20.82
2023-05-24T13:12:41.801Z,21.30
2023-05-24T13:15:09.010Z,20.96
2023-05-24T13:17:36.184Z,20.63
2023-05-24T13:20:06.674Z,20.85
2023-05-24T13:22:34.577Z,21.17
2023-05-24T13:25:02.733Z,21.00
2023-05-24T13:27:29.644Z,20.97
2023-05-24T13:32:25.473Z,21.05
2023-05-24T13:34:52.406Z,21.48
2023-05-24T13:37:19.508Z,20.63
2023-05-24T13:39:46.179Z,20.41
2023-05-24T13:42:14.653Z,20.58
2023-05-24T13:44:41.169Z,20.25
2023-05-24T13:47:08.505Z,20.00
2023-05-24T13:49:35.107Z,19.69
2023-05-24T13:52:02.430Z,19.16
2023-05-24T13:54:28.869Z,19.02
2023-05-24T13:56:57.468Z,18.76
2023-05-24T13:59:24.668Z,18.70
2023-05-24T14:01:51.335Z,18.63
2023-05-24T14:04:18.000Z,19.11
2023-05-24T14:06:44.513Z,19.62
2023-05-24T14:09:10.988Z,19.96
2023-05-24T14:11:37.556Z,20.24
2023-05-24T14:16:34.585Z,20.87
2023-05-24T14:19:01.436Z,21.02
2023-05-24T14:21:28.051Z,21.31
2023-05-24T14:23:54.532Z,21.06
2023-05-24T14:26:23.612Z,20.87
2023-05-24T14:28:52.237Z,20.84
2023-05-24T14:31:20.319Z,21.09
2023-05-24T14:33:47.472Z,21.30
2023-05-24T14:36:14.064Z,20.87
2023-05-24T14:38:40.982Z,20.82
2023-05-24T14:41:09.274Z,19.90
2023-05-24T14:43:37.601Z,19.93
2023-05-24T14:46:04.306Z,19.31
2023-05-24T14:48:30.800Z,19.22
2023-05-24T14:50:57.355Z,18.36
2023-05-24T14:53:23.853Z,18.53
2023-05-24T14:55:50.392Z,18.28
2023-05-24T14:58:16.946Z,18.47
2023-05-24T15:00:44.336Z,18.80
2023-05-24T15:03:12.802Z,18.77
2023-05-24T15:05:39.950Z,19.08
2023-05-24T15:08:07.880Z,18.83
2023-05-24T15:10:34.637Z,18.69
2023-05-24T15:13:01.671Z,18.92
2023-05-24T15:15:28.518Z,18.99
2023-05-24T15:17:55.106Z,19.29
2023-05-24T15:20:21.818Z,19.32
2023-05-24T15:22:48.552Z,19.05
2023-05-24T15:25:15.168Z,18.70
2023-05-24T15:27:41.739Z,18.99
2023-05-24T15:30:08.537Z,18.98
2023-05-24T15:32:35.908Z,18.91
2023-05-24T15:35:02.450Z,18.96
2023-05-24T15:37:29.618Z,18.28
2023-05-24T15:39:56.320Z,18.06
2023-05-24T15:42:24.710Z,18.29
2023-05-24T15:44:51.701Z,18.63
2023-05-24T15:47:21.187Z,19.10
2023-05-24T15:49:49.691Z,19.11
2023-05-24T15:52:17.076Z,18.85
2023-05-24T15:54:44.397Z,19.08
2023-05-24T15:57:10.962Z,19.13
2023-05-24T15:59:38.646Z,19.05
2023-05-24T16:02:08.574Z,19.27
2023-05-24T16:04:35.123Z,19.00
2023-05-24T16:07:01.665Z,18.74
2023-05-24T16:09:28.203Z,18.60
2023-05-24T16:11:54.809Z,18.65
2023-05-24T16:14:21.498Z,18.86
2023-05-24T16:16:48.008Z,18.80
2023-05-24T16:19:14.535Z,18.93
2023-05-24T16:21:41.451Z,18.81
2023-05-24T16:24:07.955Z,18.52
2023-05-24T16:26:34.540Z,18.64
2023-05-24T16:29:01.781Z,18.48
2023-05-24T16:31:30.080Z,18.40
2023-05-24T16:33:58.743Z,18.41
2023-05-24T16:36:26.843Z,18.35
2023-05-24T16:38:53.601Z,18.24
2023-05-24T16:41:20.332Z,18.06
2023-05-24T16:43:47.291Z,18.24
2023-05-24T16:46:13.946Z,18.09
2023-05-24T16:48:40.589Z,18.00
2023-05-24T16:51:07.680Z,18.17
2023-05-24T16:53:34.124Z,18.15
2023-05-24T16:56:00.682Z,17.99
2023-05-24T16:58:28.131Z,17.79
2023-05-24T17:00:55.355Z,17.88
2023-05-24T17:03:27.555Z,17.81
2023-05-24T17:05:55.398Z,17.68
2023-05-24T17:08:22.400Z,17.56
2023-05-24T17:10:55.689Z,17.38
2023-05-24T17:13:23.312Z,17.18
2023-05-24T17:15:53.728Z,17.22
2023-05-24T17:18:27.588Z,17.03
2023-05-24T17:20:58.654Z,16.85
2023-05-24T17:23:26.234Z,16.63
2023-05-24T17:25:53.574Z,16.56
2023-05-24T17:28:20.041Z,16.35
2023-05-24T17:30:47.298Z,16.48
2023-05-24T17:33:13.796Z,16.38
2023-05-24T17:35:41.745Z,16.31
2023-05-24T17:38:10.019Z,16.11
2023-05-24T17:40:36.509Z,16.08
2023-05-24T17:43:03.067Z,15.88
2023-05-24T17:45:29.768Z,15.80
2023-05-24T17:47:56.462Z,15.71
2023-05-24T17:50:23.408Z,15.64
2023-05-24T17:52:49.982Z,15.51
2023-05-24T17:55:16.703Z,15.39
2023-05-24T17:57:43.835Z,15.23
2023-05-24T18:00:11.852Z,15.22
2023-05-24T18:02:38.584Z,15.11
2023-05-24T18:05:05.482Z,15.00
2023-05-24T18:07:31.956Z,14.86
2023-05-24T18:10:00.397Z,14.75
2023-05-24T18:12:27.155Z,14.67
2023-05-24T18:14:53.707Z,14.49
2023-05-24T18:17:20.337Z,14.43
2023-05-24T18:19:46.988Z,14.36
2023-05-24T18:22:13.573Z,14.29
2023-05-24T18:24:40.051Z,14.18
2023-05-24T18:27:06.516Z,14.10
2023-05-24T18:29:33.110Z,13.95
2023-05-24T18:31:59.999Z,14.00
2023-05-24T18:34:26.855Z,13.86
2023-05-24T18:36:54.764Z,13.69
2023-05-24T18:39:21.475Z,13.57
2023-05-24T18:41:48.032Z,13.45
2023-05-24T18:44:14.917Z,13.36
2023-05-24T18:46:41.494Z,13.23
2023-05-24T18:49:10.916Z,13.13
2023-05-24T18:51:37.991Z,13.07
2023-05-24T18:54:04.710Z,12.93
2023-05-24T18:56:31.191Z,12.93
2023-05-24T18:58:59.646Z,12.81
2023-05-24T19:01:28.221Z,12.66
2023-05-24T19:03:54.972Z,12.58
2023-05-24T19:06:21.562Z,12.47
2023-05-24T19:08:48.035Z,12.31
2023-05-24T19:11:14.715Z,12.20
2023-05-24T19:13:41.529Z,11.98
2023-05-24T19:16:08.024Z,11.92
2023-05-24T19:18:34.525Z,11.94
2023-05-24T19:21:01.102Z,11.87
2023-05-24T19:23:27.688Z,11.77
2023-05-24T19:25:54.138Z,11.61
2023-05-24T19:28:20.669Z,11.54
2023-05-24T19:30:47.633Z,11.43
2023-05-24T19:33:14.320Z,11.46
2023-05-24T19:35:41.041Z,11.29
2023-05-24T19:38:08.196Z,11.27
2023-05-24T19:40:34.760Z,11.17
2023-05-24T19:43:01.459Z,11.04
2023-05-24T19:45:27.965Z,11.06
2023-05-24T19:47:54.522Z,10.97
2023-05-24T19:50:21.142Z,10.91
2023-05-24T19:52:47.600Z,10.80
2023-05-24T19:55:14.414Z,10.72
2023-05-24T19:57:40.914Z,10.81
2023-05-24T20:00:07.849Z,10.71
2023-05-24T20:02:36.597Z,10.75
2023-05-24T20:05:04.387Z,10.66
2023-05-24T20:07:31.590Z,10.53
2023-05-24T20:09:58.085Z,10.67
2023-05-24T20:12:25.017Z,10.53
2023-05-24T20:14:52.328Z,10.40
2023-05-24T20:17:18.780Z,10.30
2023-05-24T20:19:45.478Z,10.24
2023-05-24T20:22:12.533Z,10.16
2023-05-24T20:24:39.030Z,10.20
2023-05-24T20:27:06.339Z,10.10
2023-05-24T20:29:32.965Z,10.01
2023-05-24T20:31:59.658Z,9.97
2023-05-24T20:34:26.363Z,9.90
2023-05-24T20:36:52.956Z,9.88
2023-05-24T20:39:19.391Z,9.89
2023-05-24T20:41:46.046Z,9.80
2023-05-24T20:44:12.592Z,9.71
2023-05-24T20:46:39.141Z,9.63
2023-05-24T20:49:05.819Z,9.63
2023-05-24T20:51:33.101Z,9.58
2023-05-24T20:53:59.793Z,9.46
2023-05-24T20:56:26.371Z,9.46
2023-05-24T20:58:54.210Z,9.40
2023-05-24T21:01:21.274Z,9.33
2023-05-24T21:03:47.869Z,9.28
2023-05-24T21:06:14.376Z,9.32
2023-05-24T21:08:41.020Z,9.30
2023-05-24T21:11:07.452Z,9.30
2023-05-24T21:13:34.424Z,9.23
2023-05-24T21:16:02.177Z,9.12
2023-05-24T21:18:28.651Z,8.96
2023-05-24T21:20:55.162Z,8.87
2023-05-24T21:23:21.631Z,8.75
2023-05-24T21:25:48.061Z,8.63
2023-05-24T21:28:14.615Z,8.60
2023-05-24T21:30:41.206Z,8.54
2023-05-24T21:33:08.263Z,8.47
2023-05-24T21:35:34.769Z,8.45
2023-05-24T21:38:01.505Z,8.46
2023-05-24T21:40:28.130Z,8.50
2023-05-24T21:42:54.560Z,8.43
2023-05-24T21:45:21.180Z,8.41
2023-05-24T21:47:47.699Z,8.43
2023-05-24T21:50:14.309Z,8.37
2023-05-24T21:52:40.908Z,8.35
2023-05-24T21:55:07.767Z,8.28
2023-05-24T21:57:34.212Z,8.16
2023-05-24T22:00:01.490Z,8.14
2023-05-24T22:02:30.302Z,8.03
2023-05-24T22:04:56.991Z,7.96
2023-05-24T22:07:23.478Z,7.93
2023-05-24T22:09:49.976Z,7.85
2023-05-24T22:12:16.667Z,7.87
2023-05-24T22:14:43.111Z,7.89
2023-05-24T22:17:09.717Z,7.82
2023-05-24T22:19:40.126Z,7.73
2023-05-24T22:22:07.970Z,7.72
2023-05-24T22:24:34.473Z,7.74
2023-05-24T22:27:01.404Z,7.70
2023-05-24T22:29:28.054Z,7.69
2023-05-24T22:31:54.548Z,7.61
2023-05-24T22:34:30.082Z,7.65
2023-05-24T22:36:57.730Z,7.61
2023-05-24T22:39:24.628Z,7.54
2023-05-24T22:41:51.757Z,7.45
2023-05-24T22:44:18.198Z,7.40
2023-05-24T22:46:45.072Z,7.39
2023-05-24T22:49:13.406Z,7.43
2023-05-24T22:51:44.371Z,7.34
2023-05-24T22:54:11.720Z,7.30
2023-05-24T22:56:38.978Z,7.38
2023-05-24T22:59:06.042Z,7.33
2023-05-24T23:01:33.702Z,7.33
2023-05-24T23:04:15.708Z,7.31
2023-05-24T23:06:46.081Z,7.22
2023-05-24T23:09:13.102Z,7.17
2023-05-24T23:11:39.876Z,7.15
2023-05-24T23:14:09.046Z,7.13
2023-05-24T23:16:45.736Z,7.11
2023-05-24T23:19:18.919Z,7.11
2023-05-24T23:21:46.165Z,7.12
2023-05-24T23:24:14.711Z,7.05
2023-05-24T23:26:42.242Z,7.05
2023-05-24T23:29:09.431Z,6.98
2023-05-24T23:31:38.287Z,6.98
2023-05-24T23:34:05.939Z,7.07
2023-05-24T23:36:32.731Z,7.00
2023-05-24T23:38:59.637Z,6.92
2023-05-24T23:41:26.660Z,6.95
2023-05-24T23:43:53.261Z,6.90
2023-05-24T23:46:20.186Z,6.82
2023-05-24T23:48:46.808Z,6.79
2023-05-24T23:51:13.781Z,6.76
2023-05-24T23:53:40.745Z,6.76
2023-05-24T23:56:08.462Z,6.79
2023-05-24T23:58:35.946Z,6.79
